createdAt,value
2022-08-19T00:01:28.962Z,98300.53
2022-08-19T00:03:58.108Z,98298.81
2022-08-19T00:06:25.771Z,98304.69
2022-08-19T00:08:52.934Z,98300.50
2022-08-19T00:11:25.452Z,98299.56
2022-08-19T00:13:53.586Z,98302.31
2022-08-19T00:16:22.785Z,98300.63
2022-08-19T00:18:56.520Z,98301.53
2022-08-19T00:21:24.577Z,98304.28
2022-08-19T00:23:51.789Z,98293.44
2022-08-19T00:26:19.013Z,98301.56
2022-08-19T00:28:46.297Z,98305.88
2022-08-19T00:31:13.614Z,98304.63
2022-08-19T00:33:40.989Z,98299.97
2022-08-19T00:36:11.181Z,98296.09
2022-08-19T00:38:43.364Z,98296.22
2022-08-19T00:41:13.642Z,98299.47
2022-08-19T00:43:42.150Z,98301.91
2022-08-19T00:46:09.789Z,98298.63
2022-08-19T00:48:37.566Z,98299.81
2022-08-19T00:51:05.685Z,98309.38
2022-08-19T00:53:35.265Z,98296.38
2022-08-19T00:56:07.286Z,98303.78
2022-08-19T00:58:35.900Z,98307.28
2022-08-19T01:01:05.376Z,98313.72
2022-08-19T01:03:57.251Z,98302.56
2022-08-19T01:06:20.745Z,98303.94
2022-08-19T01:08:50.180Z,98311.66
2022-08-19T01:11:17.992Z,98310.09
2022-08-19T01:13:50.021Z,98317.78
2022-08-19T01:16:20.058Z,98305.72
2022-08-19T01:18:47.593Z,98302.34
2022-08-19T01:21:23.053Z,98304.44
2022-08-19T01:23:51.831Z,98307.19
2022-08-19T01:26:21.194Z,98303.63
2022-08-19T01:28:50.648Z,98300.16
2022-08-19T01:31:27.101Z,98308.13
2022-08-19T01:33:57.289Z,98300.84
2022-08-19T01:36:27.486Z,98303.47
2022-08-19T01:38:56.562Z,98306.69
2022-08-19T01:41:24.775Z,98304.16
2022-08-19T01:44:13.805Z,98312.31
2022-08-19T01:46:40.413Z,98313.41
2022-08-19T01:49:09.176Z,98298.47
2022-08-19T01:51:39.771Z,98307.19
2022-08-19T01:54:09.488Z,98306.13
2022-08-19T01:56:37.073Z,98310.09
2022-08-19T01:59:07.453Z,98313.31
2022-08-19T02:01:35.810Z,98310.03
2022-08-19T02:04:03.842Z,98305.66
2022-08-19T02:06:31.303Z,98307.31
2022-08-19T02:08:58.601Z,98310.06
2022-08-19T02:11:29.082Z,98306.81
2022-08-19T02:13:56.620Z,98306.16
2022-08-19T02:16:25.101Z,98319.31
2022-08-19T02:18:52.438Z,98311.28
2022-08-19T02:21:21.393Z,98317.09
2022-08-19T02:23:48.870Z,98316.44
2022-08-19T02:26:16.618Z,98323.31
2022-08-19T02:28:45.317Z,98325.72
2022-08-19T02:31:15.795Z,98330.56
2022-08-19T02:33:43.026Z,98333.75
2022-08-19T02:36:11.615Z,98329.13
2022-08-19T02:38:39.627Z,98328.41
2022-08-19T02:41:12.028Z,98342.41
2022-08-19T02:43:44.347Z,98341.38
2022-08-19T02:46:32.289Z,98334.44
2022-08-19T02:49:03.194Z,98339.69
2022-08-19T02:51:33.973Z,98347.38
2022-08-19T02:54:01.742Z,98336.41
2022-08-19T02:56:29.152Z,98349.28
2022-08-19T02:58:56.593Z,98350.91
2022-08-19T03:01:26.594Z,98353.59
2022-08-19T03:03:56.492Z,98351.56
2022-08-19T03:06:24.294Z,98354.28
2022-08-19T03:08:52.013Z,98349.59
2022-08-19T03:11:21.855Z,98355.41
2022-08-19T03:13:52.793Z,98351.03
2022-08-19T03:16:21.350Z,98346.06
2022-08-19T03:18:49.449Z,98350.31
2022-08-19T03:21:19.907Z,98362.69
2022-08-19T03:23:47.476Z,98361.91
2022-08-19T03:26:17.081Z,98363.47
2022-08-19T03:28:51.371Z,98353.31
2022-08-19T03:31:44.049Z,98354.34
2022-08-19T03:34:12.654Z,98359.56
2022-08-19T03:36:42.446Z,98363.75
2022-08-19T03:39:11.622Z,98363.47
2022-08-19T03:41:44.969Z,98369.47
2022-08-19T03:44:17.007Z,98376.75
2022-08-19T03:46:46.803Z,98375.97
2022-08-19T03:49:14.728Z,98382.78
2022-08-19T03:51:44.057Z,98373.84
2022-08-19T03:54:13.946Z,98381.13
2022-08-19T03:56:42.829Z,98382.22
2022-08-19T03:59:12.653Z,98379.00
2022-08-19T04:01:39.955Z,98378.44
2022-08-19T04:04:07.211Z,98382.03
2022-08-19T04:06:39.633Z,98381.28
2022-08-19T04:09:11.404Z,98383.09
2022-08-19T04:11:44.583Z,98380.47
2022-08-19T04:14:15.200Z,98378.16
2022-08-19T04:16:45.418Z,98386.97
2022-08-19T04:19:13.283Z,98386.34
2022-08-19T04:21:40.534Z,98386.25
2022-08-19T04:24:10.394Z,98390.13
2022-08-19T04:26:38.552Z,98385.41
2022-08-19T04:29:12.491Z,98390.22
2022-08-19T04:31:41.947Z,98394.78
2022-08-19T04:34:12.030Z,98404.66
2022-08-19T04:36:42.311Z,98405.66
2022-08-19T04:39:13.741Z,98406.34
2022-08-19T04:41:59.779Z,98413.25
2022-08-19T04:44:27.282Z,98409.09
2022-08-19T04:46:54.517Z,98408.94
2022-08-19T04:49:23.890Z,98410.31
2022-08-19T04:51:55.025Z,98406.72
2022-08-19T04:54:37.043Z,98396.75
2022-08-19T04:57:07.886Z,98406.03
2022-08-19T04:59:35.980Z,98411.75
2022-08-19T05:02:03.413Z,98401.91
2022-08-19T05:04:33.344Z,98406.84
2022-08-19T05:07:02.175Z,98408.78
2022-08-19T05:09:33.094Z,98418.78
2022-08-19T05:12:19.082Z,98413.28
2022-08-19T05:14:48.196Z,98417.09
2022-08-19T05:17:37.457Z,98416.25
2022-08-19T05:20:22.723Z,98413.28
2022-08-19T05:22:50.105Z,98414.44
2022-08-19T05:25:21.565Z,98411.31
2022-08-19T05:27:49.369Z,98409.53
2022-08-19T05:30:17.602Z,98413.56
2022-08-19T05:32:44.993Z,98399.09
2022-08-19T05:35:12.856Z,98405.91
2022-08-19T05:37:43.441Z,98396.75
2022-08-19T05:40:11.293Z,98401.53
2022-08-19T05:42:40.008Z,98402.41
2022-08-19T05:45:08.918Z,98402.50
2022-08-19T05:47:36.666Z,98411.53
2022-08-19T05:50:09.836Z,98394.94
2022-08-19T05:52:39.187Z,98399.66
2022-08-19T05:55:11.529Z,98405.47
2022-08-19T05:57:40.341Z,98408.47
2022-08-19T06:00:12.490Z,98404.03
2022-08-19T06:02:40.552Z,98401.09
2022-08-19T06:05:10.175Z,98414.66
2022-08-19T06:07:37.988Z,98401.06
2022-08-19T06:10:07.050Z,98387.38
2022-08-19T06:12:36.559Z,98398.75
2022-08-19T06:15:08.726Z,98396.03
2022-08-19T06:17:36.296Z,98387.09
2022-08-19T06:20:06.033Z,98390.63
2022-08-19T06:22:38.217Z,98385.13
2022-08-19T06:25:06.614Z,98383.69
2022-08-19T06:27:34.561Z,98387.31
2022-08-19T06:30:02.049Z,98377.78
2022-08-19T06:32:31.237Z,98376.66
2022-08-19T06:34:58.709Z,98379.31
2022-08-19T06:37:26.113Z,98379.19
2022-08-19T06:39:53.465Z,98374.06
2022-08-19T06:42:21.721Z,98371.28
2022-08-19T06:44:53.111Z,98371.09
2022-08-19T06:47:23.385Z,98368.69
2022-08-19T06:50:01.449Z,98371.84
2022-08-19T06:52:31.605Z,98363.75
2022-08-19T06:55:01.682Z,98372.00
2022-08-19T06:57:34.515Z,98361.00
2022-08-19T07:00:02.022Z,98367.78
2022-08-19T07:02:29.528Z,98363.28
2022-08-19T07:05:03.638Z,98363.38
2022-08-19T07:07:34.451Z,98353.88
2022-08-19T07:10:03.835Z,98358.31
2022-08-19T07:12:38.147Z,98359.03
2022-08-19T07:15:09.567Z,98353.16
2022-08-19T07:17:39.116Z,98350.53
2022-08-19T07:20:10.175Z,98356.34
2022-08-19T07:22:37.590Z,98358.75
2022-08-19T07:25:07.413Z,98357.00
2022-08-19T07:27:35.514Z,98354.06
2022-08-19T07:30:04.182Z,98361.84
2022-08-19T07:32:32.619Z,98358.38
2022-08-19T07:35:01.834Z,98358.81
2022-08-19T07:37:33.408Z,98349.22
2022-08-19T07:40:01.322Z,98356.28
2022-08-19T07:42:30.894Z,98348.75
2022-08-19T07:44:59.381Z,98355.31
2022-08-19T07:47:47.415Z,98354.75
2022-08-19T07:50:14.730Z,98350.22
2022-08-19T07:52:48.975Z,98356.75
2022-08-19T07:55:42.550Z,98358.19
2022-08-19T07:58:10.604Z,98363.81
2022-08-19T08:00:38.114Z,98354.22
2022-08-19T08:03:05.369Z,98345.97
2022-08-19T08:05:51.526Z,98349.78
2022-08-19T08:08:43.871Z,98345.84
2022-08-19T08:11:15.373Z,98346.44
2022-08-19T08:13:43.230Z,98341.06
2022-08-19T08:16:14.119Z,98326.53
2022-08-19T08:18:50.393Z,98329.41
2022-08-19T08:21:20.395Z,98334.91
2022-08-19T08:23:49.050Z,98333.13
2022-08-19T08:26:17.157Z,98321.56
2022-08-19T08:28:49.549Z,98325.41
2022-08-19T08:31:17.546Z,98327.38
2022-08-19T08:33:44.806Z,98325.91
2022-08-19T08:36:14.706Z,98320.63
2022-08-19T08:38:43.081Z,98335.97
2022-08-19T08:41:20.712Z,98323.78
2022-08-19T08:43:52.201Z,98318.44
2022-08-19T08:46:31.327Z,98325.31
2022-08-19T08:49:06.854Z,98329.53
2022-08-19T08:51:38.027Z,98321.13
2022-08-19T08:54:09.883Z,98318.41
2022-08-19T08:56:41.321Z,98316.47
2022-08-19T08:59:13.999Z,98305.34
2022-08-19T09:01:41.440Z,98309.91
2022-08-19T09:04:09.081Z,98322.13
2022-08-19T09:06:41.490Z,98310.31
2022-08-19T09:09:17.966Z,98311.00
2022-08-19T09:12:01.501Z,98310.56
2022-08-19T09:14:50.616Z,98303.59
2022-08-19T09:17:20.875Z,98312.25
2022-08-19T09:19:55.494Z,98307.19
2022-08-19T09:22:25.765Z,98302.97
2022-08-19T09:24:55.041Z,98305.22
2022-08-19T09:27:43.228Z,98297.09
2022-08-19T09:30:17.563Z,98294.19
2022-08-19T09:32:46.452Z,98300.72
2022-08-19T09:35:15.222Z,98294.19
2022-08-19T09:37:43.777Z,98296.94
2022-08-19T09:40:13.752Z,98293.81
2022-08-19T09:42:49.635Z,98290.28
2022-08-19T09:45:21.671Z,98292.66
2022-08-19T09:47:49.981Z,98302.13
2022-08-19T09:50:17.885Z,98290.34
2022-08-19T09:52:57.233Z,98292.81
2022-08-19T09:55:31.774Z,98292.59
2022-08-19T09:58:05.015Z,98297.19
2022-08-19T10:00:32.399Z,98289.09
2022-08-19T10:03:00.021Z,98284.59
2022-08-19T10:05:48.553Z,98284.53
2022-08-19T10:08:17.794Z,98290.81
2022-08-19T10:10:46.732Z,98286.47
2022-08-19T10:13:18.322Z,98283.28
2022-08-19T10:15:48.153Z,98287.63
2022-08-19T10:18:20.413Z,98287.56
2022-08-19T10:20:51.855Z,98285.50
2022-08-19T10:23:21.541Z,98273.28
2022-08-19T10:25:49.216Z,98286.66
2022-08-19T10:28:19.308Z,98282.63
2022-08-19T10:30:48.631Z,98277.38
2022-08-19T10:33:27.128Z,98286.97
2022-08-19T10:36:05.621Z,98287.53
2022-08-19T10:38:33.041Z,98276.09
2022-08-19T10:41:08.439Z,98274.34
2022-08-19T10:43:39.290Z,98267.78
2022-08-19T10:46:13.721Z,98275.81
2022-08-19T10:48:41.942Z,98279.44
2022-08-19T10:51:28.853Z,98281.78
2022-08-19T10:53:56.858Z,98277.19
2022-08-19T10:56:42.922Z,98277.13
2022-08-19T10:59:14.001Z,98274.09
2022-08-19T11:01:42.677Z,98276.00
2022-08-19T11:04:12.197Z,98264.13
2022-08-19T11:06:39.590Z,98268.59
2022-08-19T11:09:06.949Z,98272.19
2022-08-19T11:11:41.958Z,98267.78
2022-08-19T11:14:12.669Z,98263.75
2022-08-19T11:16:40.779Z,98266.19
2022-08-19T11:19:09.402Z,98267.56
2022-08-19T11:21:39.025Z,98261.38
2022-08-19T11:24:08.625Z,98263.69
2022-08-19T11:26:37.062Z,98250.66
2022-08-19T11:29:07.126Z,98253.13
2022-08-19T11:31:37.219Z,98253.31
2022-08-19T11:34:07.051Z,98251.94
2022-08-19T11:36:35.465Z,98247.16
2022-08-19T11:39:03.766Z,98233.16
2022-08-19T11:41:30.897Z,98239.22
2022-08-19T11:43:58.290Z,98244.78
2022-08-19T11:46:26.897Z,98234.47
2022-08-19T11:48:55.725Z,98240.91
2022-08-19T11:51:25.685Z,98232.91
2022-08-19T11:53:54.784Z,98236.56
2022-08-19T11:56:22.914Z,98241.31
2022-08-19T11:58:50.332Z,98241.91
2022-08-19T12:01:19.971Z,98230.41
2022-08-19T12:03:48.721Z,98236.41
2022-08-19T12:06:20.678Z,98226.97
2022-08-19T12:08:48.505Z,98233.22
2022-08-19T12:11:16.104Z,98222.53
2022-08-19T12:13:47.369Z,98222.53
2022-08-19T12:16:17.213Z,98214.81
2022-08-19T12:18:47.417Z,98218.81
2022-08-19T12:21:15.398Z,98218.69
2022-08-19T12:23:46.393Z,98218.41
2022-08-19T12:26:14.127Z,98214.38
2022-08-19T12:28:42.446Z,98222.84
2022-08-19T12:31:13.064Z,98221.34
2022-08-19T12:33:41.292Z,98214.38
2022-08-19T12:36:13.287Z,98214.19
2022-08-19T12:38:41.217Z,98207.44
2022-08-19T12:41:12.208Z,98206.81
2022-08-19T12:43:39.598Z,98209.94
2022-08-19T12:46:07.458Z,98204.19
2022-08-19T12:48:40.243Z,98205.16
2022-08-19T12:51:11.210Z,98203.78
2022-08-19T12:53:39.458Z,98204.72
2022-08-19T12:56:08.959Z,98199.50
2022-08-19T12:58:48.967Z,98201.06
2022-08-19T13:01:22.034Z,98192.19
2022-08-19T13:03:53.572Z,98192.78
2022-08-19T13:06:22.485Z,98192.94
2022-08-19T13:08:49.916Z,98189.72
2022-08-19T13:11:19.395Z,98196.09
2022-08-19T13:13:50.652Z,98188.38
2022-08-19T13:16:19.070Z,98187.59
2022-08-19T13:18:48.490Z,98182.97
2022-08-19T13:21:16.121Z,98193.72
2022-08-19T13:23:43.462Z,98183.25
2022-08-19T13:26:12.497Z,98180.75
2022-08-19T13:28:59.141Z,98178.19
2022-08-19T13:31:49.886Z,98183.53
2022-08-19T13:34:18.243Z,98173.56
2022-08-19T13:36:45.801Z,98170.53
2022-08-19T13:39:13.497Z,98174.06
2022-08-19T13:41:48.971Z,98176.91
2022-08-19T13:44:16.451Z,98174.72
2022-08-19T13:46:46.142Z,98173.22
2022-08-19T13:49:16.254Z,98176.25
2022-08-19T13:51:44.061Z,98167.03
2022-08-19T13:54:12.306Z,98164.69
2022-08-19T13:56:41.887Z,98171.56
2022-08-19T13:59:09.282Z,98173.81
2022-08-19T14:01:36.623Z,98165.34
2022-08-19T14:04:08.206Z,98164.84
2022-08-19T14:06:35.692Z,98161.34
2022-08-19T14:09:03.543Z,98169.66
2022-08-19T14:11:31.048Z,98165.41
2022-08-19T14:13:58.435Z,98174.34
2022-08-19T14:16:25.832Z,98168.00
2022-08-19T14:18:54.514Z,98159.38
2022-08-19T14:21:24.674Z,98172.44
2022-08-19T14:23:52.377Z,98161.00
2022-08-19T14:26:20.769Z,98162.19
2022-08-19T14:28:48.129Z,98161.41
2022-08-19T14:31:19.905Z,98161.78
2022-08-19T14:33:47.974Z,98160.63
2022-08-19T14:36:15.518Z,98162.50
2022-08-19T14:38:44.825Z,98157.16
2022-08-19T14:41:17.277Z,98155.63
2022-08-19T14:43:47.319Z,98158.28
2022-08-19T14:46:15.806Z,98160.22
2022-08-19T14:48:45.434Z,98164.81
2022-08-19T14:51:12.759Z,98159.88
2022-08-19T14:53:40.021Z,98162.94
2022-08-19T14:56:13.885Z,98161.78
2022-08-19T14:58:42.234Z,98163.31
2022-08-19T15:01:10.534Z,98158.72
2022-08-19T15:03:37.968Z,98168.66
2022-08-19T15:06:06.857Z,98162.53
2022-08-19T15:08:37.684Z,98156.44
2022-08-19T15:11:10.627Z,98158.72
2022-08-19T15:13:40.531Z,98156.81
2022-08-19T15:16:17.700Z,98152.63
2022-08-19T15:18:46.898Z,98165.22
2022-08-19T15:21:27.005Z,98158.69
2022-08-19T15:23:56.044Z,98167.06
2022-08-19T15:26:23.545Z,98154.78
2022-08-19T15:28:52.624Z,98163.50
2022-08-19T15:31:28.036Z,98156.94
2022-08-19T15:33:58.692Z,98155.81
2022-08-19T15:36:27.172Z,98150.03
2022-08-19T15:38:55.594Z,98150.72
2022-08-19T15:41:25.970Z,98147.59
2022-08-19T15:43:56.877Z,98145.97
2022-08-19T15:46:26.934Z,98140.22
2022-08-19T15:48:57.461Z,98137.16
2022-08-19T15:51:30.473Z,98143.56
2022-08-19T15:53:58.321Z,98150.78
2022-08-19T15:56:27.634Z,98144.28
2022-08-19T15:59:15.144Z,98148.44
2022-08-19T16:02:01.218Z,98147.59
2022-08-19T16:04:47.538Z,98144.16
2022-08-19T16:07:15.070Z,98148.66
2022-08-19T16:09:50.171Z,98148.22
2022-08-19T16:12:18.998Z,98134.13
2022-08-19T16:14:49.258Z,98136.72
2022-08-19T16:17:16.852Z,98138.59
2022-08-19T16:19:44.266Z,98132.84
2022-08-19T16:22:11.407Z,98137.34
2022-08-19T16:24:38.742Z,98140.31
2022-08-19T16:27:06.194Z,98141.38
2022-08-19T16:29:39.277Z,98139.00
2022-08-19T16:32:13.218Z,98144.22
2022-08-19T16:34:41.788Z,98141.09
2022-08-19T16:37:10.044Z,98140.25
2022-08-19T16:39:37.782Z,98147.78
2022-08-19T16:42:07.754Z,98143.13
2022-08-19T16:44:35.497Z,98149.16
2022-08-19T16:47:02.912Z,98146.41
2022-08-19T16:49:52.848Z,98146.75
2022-08-19T16:52:19.927Z,98148.88
2022-08-19T16:54:47.346Z,98157.91
2022-08-19T16:57:14.786Z,98161.19
2022-08-19T16:59:44.116Z,98159.88
2022-08-19T17:02:17.129Z,98165.06
2022-08-19T17:04:55.676Z,98156.53
2022-08-19T17:07:25.257Z,98167.78
2022-08-19T17:09:52.467Z,98171.38
2022-08-19T17:12:19.679Z,98175.78
2022-08-19T17:14:47.064Z,98174.91
2022-08-19T17:17:14.751Z,98175.47
2022-08-19T17:19:45.431Z,98176.44
2022-08-19T17:22:13.210Z,98176.31
2022-08-19T17:24:41.021Z,98181.09
2022-08-19T17:27:09.086Z,98182.09
2022-08-19T17:29:36.482Z,98190.25
2022-08-19T17:32:05.396Z,98191.56
2022-08-19T17:34:33.633Z,98193.25
2022-08-19T17:37:02.287Z,98194.16
2022-08-19T17:39:29.677Z,98195.50
2022-08-19T17:41:57.133Z,98200.91
2022-08-19T17:44:30.169Z,98199.19
2022-08-19T17:46:57.432Z,98200.09
2022-08-19T17:49:24.697Z,98209.75
2022-08-19T17:51:52.305Z,98204.66
2022-08-19T17:54:21.021Z,98212.78
2022-08-19T17:56:48.396Z,98216.38
2022-08-19T17:59:16.569Z,98223.72
2022-08-19T18:01:54.187Z,98219.69
2022-08-19T18:04:22.887Z,98221.31
2022-08-19T18:06:52.962Z,98232.50
2022-08-19T18:09:25.123Z,98226.69
2022-08-19T18:11:54.397Z,98226.53
2022-08-19T18:14:32.249Z,98227.09
2022-08-19T18:17:02.314Z,98230.31
2022-08-19T18:19:34.210Z,98239.59
2022-08-19T18:22:09.593Z,98238.97
2022-08-19T18:24:40.550Z,98246.38
2022-08-19T18:27:07.735Z,98248.06
2022-08-19T18:29:37.527Z,98248.22
2022-08-19T18:32:05.961Z,98247.50
2022-08-19T18:34:36.647Z,98244.50
2022-08-19T18:37:03.922Z,98241.66
2022-08-19T18:39:50.115Z,98256.53
2022-08-19T18:42:37.289Z,98254.00
2022-08-19T18:45:23.720Z,98259.66
2022-08-19T18:48:27.081Z,98252.25
2022-08-19T18:50:57.268Z,98271.19
2022-08-19T18:53:25.306Z,98262.13
2022-08-19T18:55:54.009Z,98260.81
2022-08-19T18:58:26.339Z,98264.31
2022-08-19T19:00:56.974Z,98264.06
2022-08-19T19:03:25.531Z,98269.75
2022-08-19T19:05:53.661Z,98269.41
2022-08-19T19:08:27.391Z,98261.44
2022-08-19T19:10:56.177Z,98281.41
2022-08-19T19:13:24.902Z,98282.56
2022-08-19T19:15:52.332Z,98283.91
2022-08-19T19:18:19.446Z,98278.88
2022-08-19T19:20:46.725Z,98283.44
2022-08-19T19:23:13.924Z,98281.66
2022-08-19T19:25:50.474Z,98281.06
2022-08-19T19:28:25.413Z,98270.69
2022-08-19T19:30:58.527Z,98284.81
2022-08-19T19:33:26.740Z,98281.56
2022-08-19T19:35:54.299Z,98283.19
2022-08-19T19:38:21.579Z,98284.88
2022-08-19T19:40:48.802Z,98281.97
2022-08-19T19:43:17.201Z,98291.91
2022-08-19T19:45:46.025Z,98291.31
2022-08-19T19:48:15.608Z,98289.94
2022-08-19T19:50:43.142Z,98305.63
2022-08-19T19:53:10.442Z,98300.06
2022-08-19T19:55:37.773Z,98297.28
2022-08-19T19:58:06.975Z,98299.00
2022-08-19T20:00:34.364Z,98301.19
2022-08-19T20:03:01.831Z,98308.47
2022-08-19T20:05:30.407Z,98309.84
2022-08-19T20:08:16.501Z,98312.19
2022-08-19T20:10:46.952Z,98308.06
2022-08-19T20:13:16.785Z,98310.38
2022-08-19T20:15:44.074Z,98306.84
2022-08-19T20:18:14.372Z,98310.72
2022-08-19T20:20:45.093Z,98307.63
2022-08-19T20:23:13.028Z,98297.41
2022-08-19T20:25:40.293Z,98305.44
2022-08-19T20:28:07.664Z,98315.81
2022-08-19T20:30:36.385Z,98309.75
2022-08-19T20:33:07.482Z,98310.84
2022-08-19T20:35:36.196Z,98303.56
2022-08-19T20:38:08.788Z,98304.66
2022-08-19T20:40:37.834Z,98307.09
2022-08-19T20:43:08.438Z,98311.91
2022-08-19T20:45:36.903Z,98314.84
2022-08-19T20:48:06.071Z,98319.94
2022-08-19T20:50:35.321Z,98318.53
2022-08-19T20:53:11.221Z,98316.34
2022-08-19T20:55:38.898Z,98320.69
2022-08-19T20:58:06.102Z,98317.84
2022-08-19T21:00:33.574Z,98325.72
2022-08-19T21:03:00.869Z,98329.25
2022-08-19T21:05:30.596Z,98320.91
2022-08-19T21:07:58.312Z,98320.44
2022-08-19T21:10:27.584Z,98319.03
2022-08-19T21:12:55.575Z,98316.84
2022-08-19T21:15:24.651Z,98318.81
2022-08-19T21:17:52.077Z,98317.59
2022-08-19T21:20:19.551Z,98324.97
2022-08-19T21:22:46.766Z,98323.25
2022-08-19T21:25:15.989Z,98314.75
2022-08-19T21:27:44.505Z,98322.56
2022-08-19T21:30:13.089Z,98324.06
2022-08-19T21:32:40.410Z,98319.72
2022-08-19T21:35:08.420Z,98327.72
2022-08-19T21:37:36.453Z,98314.22
2022-08-19T21:40:04.778Z,98328.28
2022-08-19T21:42:31.964Z,98324.38
2022-08-19T21:45:00.981Z,98315.56
2022-08-19T21:47:28.244Z,98318.78
2022-08-19T21:49:55.488Z,98317.53
2022-08-19T21:52:23.310Z,98322.00
2022-08-19T21:54:50.927Z,98312.25
2022-08-19T21:57:18.193Z,98315.59
2022-08-19T21:59:45.374Z,98321.13
2022-08-19T22:02:21.954Z,98316.91
2022-08-19T22:04:49.855Z,98322.75
2022-08-19T22:07:17.918Z,98315.31
2022-08-19T22:09:46.983Z,98322.44
2022-08-19T22:12:23.455Z,98307.00
2022-08-19T22:14:51.974Z,98304.66
2022-08-19T22:17:21.402Z,98303.69
2022-08-19T22:19:49.095Z,98313.41
2022-08-19T22:22:21.453Z,98317.09
2022-08-19T22:24:48.729Z,98320.00
2022-08-19T22:27:16.044Z,98304.88
2022-08-19T22:29:43.714Z,98301.75
2022-08-19T22:32:11.200Z,98304.22
2022-08-19T22:34:58.100Z,98299.06
2022-08-19T22:37:25.534Z,98303.06
2022-08-19T22:39:52.926Z,98301.81
2022-08-19T22:42:20.713Z,98299.00
2022-08-19T22:44:48.848Z,98295.91
2022-08-19T22:47:16.203Z,98299.91
2022-08-19T22:49:43.633Z,98304.16
2022-08-19T22:52:17.545Z,98299.50
2022-08-19T22:54:46.681Z,98309.53
2022-08-19T22:57:14.336Z,98299.63
2022-08-19T22:59:41.746Z,98307.00
2022-08-19T23:02:09.588Z,98299.44
2022-08-19T23:04:37.054Z,98303.41
2022-08-19T23:07:04.696Z,98302.47
2022-08-19T23:09:33.304Z,98299.97
2022-08-19T23:12:00.745Z,98293.16
2022-08-19T23:14:28.215Z,98295.31
2022-08-19T23:16:58.853Z,98290.63
2022-08-19T23:19:26.870Z,98289.69
2022-08-19T23:21:54.149Z,98286.66
2022-08-19T23:24:21.289Z,98281.03
2022-08-19T23:27:08.374Z,98278.50
2022-08-19T23:29:54.130Z,98281.69
2022-08-19T23:32:25.591Z,98290.75
2022-08-19T23:34:54.753Z,98275.69
2022-08-19T23:37:22.048Z,98279.88
2022-08-19T23:39:52.524Z,98286.16
2022-08-19T23:42:21.150Z,98278.31
2022-08-19T23:44:51.228Z,98283.06
2022-08-19T23:47:20.129Z,98278.41
2022-08-19T23:49:48.702Z,98286.84
2022-08-19T23:52:15.998Z,98285.31
2022-08-19T23:54:44.079Z,98280.94
2022-08-19T23:57:13.226Z,98277.81
2022-08-19T23:59:45.288Z,98273.16
